Time;durP1;ratioP1;P1;durP2;ratioP2;P2;SDS_P1;SDS_P2;PMS_P1;PMS_P2;Temp;Humidity;BMP_temperature;BMP_pressure;BME280_temperature;BME280_humidity;BME280_pressure;Samples;Min_cycle;Max_cycle;Signal;HPM_P1;HPM_P2
2023/11/06 00:02:28;;;;;;;5.60;4.47;;;;;;;;;;6307254;28;20314;-71
2023/11/06 00:05:32;;;;;;;4.68;4.00;;;;;;;;;;6307186;28;20294;-70
2023/11/06 00:08:36;;;;;;;5.13;3.80;;;;;;;;;;6306681;28;20578;-71
2023/11/06 00:11:41;;;;;;;4.40;3.72;;;;;;;;;;6306551;28;20318;-70
2023/11/06 00:14:45;;;;;;;9.30;3.97;;;;;;;;;;6304437;28;20477;-69
2023/11/06 00:17:49;;;;;;;4.28;3.92;;;;;;;;;;6306780;28;20559;-70
2023/11/06 00:20:53;;;;;;;5.32;3.60;;;;;;;;;;6306242;28;20294;-69
2023/11/06 00:23:57;;;;;;;4.35;4.00;;;;;;;;;;6306169;28;20493;-70
2023/11/06 00:27:02;;;;;;;6.10;3.70;;;;;;;;;;6307052;28;20322;-70
2023/11/06 00:30:08;;;;;;;4.22;3.90;;;;;;;;;;6338757;28;20298;-70
2023/11/06 00:33:12;;;;;;;4.43;4.00;;;;;;;;;;6304525;28;20281;-70
2023/11/06 00:36:18;;;;;;;8.35;3.70;;;;;;;;;;6306308;28;20305;-70
2023/11/06 00:39:22;;;;;;;5.68;3.40;;;;;;;;;;6305517;28;20302;-70
2023/11/06 00:42:28;;;;;;;3.83;3.63;;;;;;;;;;6338178;28;20431;-70
2023/11/06 00:45:31;;;;;;;3.88;3.58;;;;;;;;;;6305381;28;20314;-70
2023/11/06 00:48:35;;;;;;;3.72;3.58;;;;;;;;;;6305502;28;20298;-70
2023/11/06 00:51:39;;;;;;;7.80;3.53;;;;;;;;;;6306040;28;20333;-70
2023/11/06 00:54:43;;;;;;;4.93;3.70;;;;;;;;;;6302787;28;20237;-69
2023/11/06 00:57:49;;;;;;;3.65;3.45;;;;;;;;;;6306569;28;20318;-70
2023/11/06 01:00:53;;;;;;;3.58;3.38;;;;;;;;;;6305751;28;20306;-71
2023/11/06 01:03:57;;;;;;;4.45;3.65;;;;;;;;;;6304127;28;20297;-70
2023/11/06 01:07:01;;;;;;;3.83;3.63;;;;;;;;;;6337901;28;20460;-70
2023/11/06 01:10:05;;;;;;;3.60;3.30;;;;;;;;;;6337894;28;20544;-70
2023/11/06 01:13:13;;;;;;;3.70;3.50;;;;;;;;;;6303752;28;20427;-71
2023/11/06 01:16:17;;;;;;;6.97;3.28;;;;;;;;;;6304198;28;20547;-71
2023/11/06 01:19:21;;;;;;;3.90;3.53;;;;;;;;;;6304258;28;20329;-70
2023/11/06 01:22:25;;;;;;;3.45;3.20;;;;;;;;;;6305554;28;20307;-71
2023/11/06 01:25:44;;;;;;;4.05;3.70;;;;;;;;;;6304611;28;20295;-70
2023/11/06 01:28:50;;;;;;;3.78;3.47;;;;;;;;;;6308746;28;20291;-70
2023/11/06 01:31:54;;;;;;;3.78;3.50;;;;;;;;;;6310269;28;20567;-70
2023/11/06 01:34:58;;;;;;;6.68;3.80;;;;;;;;;;6309758;28;20338;-70
2023/11/06 01:38:02;;;;;;;3.55;3.33;;;;;;;;;;6309953;28;20302;-70
2023/11/06 01:41:06;;;;;;;5.18;3.70;;;;;;;;;;6310511;28;20567;-69
2023/11/06 01:44:11;;;;;;;5.15;3.85;;;;;;;;;;6309649;28;20302;-69
2023/11/06 01:47:16;;;;;;;4.32;3.90;;;;;;;;;;6308689;28;20545;-70
2023/11/06 01:50:21;;;;;;;7.05;4.32;;;;;;;;;;6309446;28;20290;-69
2023/11/06 01:53:26;;;;;;;9.48;4.40;;;;;;;;;;6306078;28;20480;-70
2023/11/06 01:56:30;;;;;;;5.03;4.60;;;;;;;;;;6309837;28;20362;-70
2023/11/06 01:59:35;;;;;;;4.70;4.32;;;;;;;;;;6308075;28;20289;-70
2023/11/06 02:02:41;;;;;;;4.97;4.50;;;;;;;;;;6308709;28;20294;-70
2023/11/06 02:05:46;;;;;;;5.07;4.47;;;;;;;;;;6307984;28;20294;-70
2023/11/06 02:08:50;;;;;;;5.53;5.13;;;;;;;;;;6308051;28;20323;-70
2023/11/06 02:11:54;;;;;;;5.18;4.78;;;;;;;;;;6308199;28;20347;-71
2023/11/06 02:15:00;;;;;;;8.13;4.90;;;;;;;;;;6341246;28;20301;-71
2023/11/06 02:18:03;;;;;;;9.27;5.07;;;;;;;;;;6307535;28;20536;-70
2023/11/06 02:21:07;;;;;;;6.25;5.00;;;;;;;;;;6309454;28;20317;-69
2023/11/06 02:24:13;;;;;;;5.45;4.95;;;;;;;;;;6307448;28;20294;-69
2023/11/06 02:27:17;;;;;;;8.25;5.45;;;;;;;;;;6308972;28;20571;-70
2023/11/06 02:30:21;;;;;;;9.90;4.95;;;;;;;;;;6308704;28;20305;-72
2023/11/06 02:33:24;;;;;;;9.93;5.90;;;;;;;;;;6308527;28;20290;-71
2023/11/06 02:36:28;;;;;;;7.95;5.78;;;;;;;;;;6308964;28;20302;-70
2023/11/06 02:39:34;;;;;;;11.30;5.32;;;;;;;;;;6308205;28;20298;-70
2023/11/06 02:42:38;;;;;;;6.45;5.43;;;;;;;;;;6308770;28;20378;-70
2023/11/06 02:45:44;;;;;;;9.45;5.13;;;;;;;;;;6308071;28;20299;-70
2023/11/06 02:48:48;;;;;;;10.65;5.18;;;;;;;;;;6307249;28;20294;-70
2023/11/06 02:51:52;;;;;;;6.07;5.45;;;;;;;;;;6307043;28;20298;-70
2023/11/06 02:54:57;;;;;;;7.95;5.72;;;;;;;;;;6306029;28;20509;-71
2023/11/06 02:58:01;;;;;;;6.03;5.28;;;;;;;;;;6308014;28;20298;-70
2023/11/06 03:01:05;;;;;;;8.05;5.80;;;;;;;;;;6308518;28;20290;-70
2023/11/06 03:04:12;;;;;;;8.00;5.63;;;;;;;;;;6307870;28;20482;-70
2023/11/06 03:07:15;;;;;;;5.88;5.38;;;;;;;;;;6308132;28;20309;-70
2023/11/06 03:10:21;;;;;;;5.95;5.18;;;;;;;;;;6306544;28;20283;-71
2023/11/06 03:13:24;;;;;;;8.65;5.60;;;;;;;;;;6306760;28;20301;-69
2023/11/06 03:16:28;;;;;;;8.38;4.93;;;;;;;;;;6306379;28;20451;-71
2023/11/06 03:19:33;;;;;;;7.63;5.05;;;;;;;;;;6307428;28;20299;-70
2023/11/06 03:22:37;;;;;;;5.10;4.80;;;;;;;;;;6307897;28;20536;-70
2023/11/06 03:25:42;;;;;;;5.85;4.85;;;;;;;;;;6306272;28;20286;-70
2023/11/06 03:28:46;;;;;;;7.18;5.20;;;;;;;;;;6307350;28;20317;-71
2023/11/06 03:31:51;;;;;;;7.43;4.95;;;;;;;;;;6307494;28;20317;-69
2023/11/06 03:34:57;;;;;;;8.65;4.93;;;;;;;;;;6305826;28;20306;-70
2023/11/06 03:38:01;;;;;;;5.95;5.07;;;;;;;;;;6305998;28;20393;-70
2023/11/06 03:41:07;;;;;;;4.50;4.10;;;;;;;;;;6305392;28;20346;-70
2023/11/06 03:44:11;;;;;;;5.03;4.63;;;;;;;;;;6307002;28;20295;-70
2023/11/06 03:47:15;;;;;;;5.97;4.80;;;;;;;;;;6307069;28;20294;-70
2023/11/06 03:50:19;;;;;;;5.65;5.10;;;;;;;;;;6306174;28;20305;-69
2023/11/06 03:53:23;;;;;;;5.03;4.60;;;;;;;;;;6303688;28;20286;-70
2023/11/06 03:56:28;;;;;;;4.95;4.50;;;;;;;;;;6306814;28;20306;-70
2023/11/06 03:59:32;;;;;;;5.00;4.60;;;;;;;;;;6306547;28;20298;-70
2023/11/06 04:02:36;;;;;;;5.13;4.80;;;;;;;;;;6293508;28;20279;-71
2023/11/06 04:05:40;;;;;;;7.57;4.72;;;;;;;;;;6280661;28;20303;-68
2023/11/06 04:08:44;;;;;;;5.57;5.00;;;;;;;;;;6293250;28;20290;-70
2023/11/06 04:11:50;;;;;;;5.10;4.70;;;;;;;;;;6306894;28;20579;-70
2023/11/06 04:14:55;;;;;;;8.68;5.38;;;;;;;;;;6306125;28;20298;-70
2023/11/06 04:17:58;;;;;;;5.85;4.80;;;;;;;;;;6306041;28;20298;-69
2023/11/06 04:21:03;;;;;;;9.85;4.93;;;;;;;;;;6306306;28;20317;-70
2023/11/06 04:24:08;;;;;;;7.60;5.15;;;;;;;;;;6306021;28;20342;-69
2023/11/06 04:27:13;;;;;;;7.20;4.90;;;;;;;;;;6306417;28;20298;-70
2023/11/06 04:30:16;;;;;;;6.57;4.68;;;;;;;;;;6305769;28;20294;-70
2023/11/06 04:33:20;;;;;;;6.25;5.35;;;;;;;;;;6305964;28;20278;-70
2023/11/06 04:36:24;;;;;;;5.30;4.75;;;;;;;;;;6306097;28;20297;-69
2023/11/06 04:39:28;;;;;;;5.57;5.07;;;;;;;;;;6305588;28;20290;-70
2023/11/06 04:42:33;;;;;;;5.55;5.05;;;;;;;;;;6306108;28;20298;-69
2023/11/06 04:45:38;;;;;;;5.65;5.20;;;;;;;;;;6305640;28;20310;-70
2023/11/06 04:48:42;;;;;;;6.55;5.80;;;;;;;;;;6305728;28;20302;-69
2023/11/06 04:51:46;;;;;;;7.00;5.28;;;;;;;;;;6304551;28;20298;-69
2023/11/06 04:54:53;;;;;;;7.05;5.55;;;;;;;;;;6303559;28;20301;-71
2023/11/06 04:57:58;;;;;;;10.57;5.97;;;;;;;;;;6305727;28;20310;-70
2023/11/06 05:01:06;;;;;;;6.85;6.05;;;;;;;;;;6305536;28;20282;-69
2023/11/06 05:04:10;;;;;;;7.78;5.70;;;;;;;;;;6304648;28;20447;-70
2023/11/06 05:07:14;;;;;;;6.85;6.18;;;;;;;;;;6307393;28;20289;-70
2023/11/06 05:10:17;;;;;;;6.30;5.63;;;;;;;;;;6305386;28;20293;-71
2023/11/06 05:13:22;;;;;;;8.02;5.93;;;;;;;;;;6303540;28;20310;-71
2023/11/06 05:16:28;;;;;;;6.57;5.45;;;;;;;;;;6306376;28;20235;-70
2023/11/06 05:19:37;;;;;;;8.50;5.50;;;;;;;;;;6305337;28;20310;-69
2023/11/06 05:22:41;;;;;;;6.53;5.75;;;;;;;;;;6306075;28;20298;-69
2023/11/06 05:25:45;;;;;;;6.88;5.70;;;;;;;;;;6304904;28;20559;-69
2023/11/06 05:28:50;;;;;;;6.40;5.80;;;;;;;;;;6303644;28;20607;-70
2023/11/06 05:31:54;;;;;;;8.02;6.28;;;;;;;;;;6305247;28;20301;-70
2023/11/06 05:34:57;;;;;;;6.20;5.70;;;;;;;;;;6304917;28;20298;-70
2023/11/06 05:38:03;;;;;;;7.45;5.97;;;;;;;;;;6304816;28;20298;-70
2023/11/06 05:41:08;;;;;;;6.00;5.50;;;;;;;;;;6305319;28;20294;-74
2023/11/06 05:44:14;;;;;;;7.78;6.05;;;;;;;;;;6304985;28;20302;-71
2023/11/06 05:47:18;;;;;;;6.05;5.55;;;;;;;;;;6305405;28;20404;-70
2023/11/06 05:50:22;;;;;;;6.20;5.70;;;;;;;;;;6304587;28;20298;-71
2023/11/06 05:53:26;;;;;;;9.57;5.75;;;;;;;;;;6303138;28;20282;-70
2023/11/06 05:56:31;;;;;;;5.95;5.53;;;;;;;;;;6305290;28;20539;-70
2023/11/06 05:59:36;;;;;;;8.20;5.60;;;;;;;;;;6304402;28;20306;-69
2023/11/06 06:02:40;;;;;;;8.32;5.60;;;;;;;;;;6304809;28;20302;-69
2023/11/06 06:05:44;;;;;;;8.20;5.47;;;;;;;;;;6304336;28;20303;-69
2023/11/06 06:08:48;;;;;;;7.75;5.88;;;;;;;;;;6304567;28;20298;-69
2023/11/06 06:11:51;;;;;;;8.20;6.28;;;;;;;;;;6304894;28;20327;-69
2023/11/06 06:14:57;;;;;;;11.90;5.55;;;;;;;;;;6308578;28;20298;-71
2023/11/06 06:18:01;;;;;;;6.55;5.85;;;;;;;;;;6309414;28;20590;-70
2023/11/06 06:21:06;;;;;;;6.53;5.85;;;;;;;;;;6309568;28;20440;-70
2023/11/06 06:24:09;;;;;;;6.20;5.70;;;;;;;;;;6309082;28;20570;-71
2023/11/06 06:27:13;;;;;;;8.15;5.32;;;;;;;;;;6309340;28;20302;-70
2023/11/06 06:30:19;;;;;;;6.90;5.97;;;;;;;;;;6309153;28;20301;-71
2023/11/06 06:33:22;;;;;;;6.75;5.80;;;;;;;;;;6309659;28;20290;-70
2023/11/06 06:36:26;;;;;;;7.35;6.25;;;;;;;;;;6309651;28;20286;-71
2023/11/06 06:39:30;;;;;;;9.68;6.75;;;;;;;;;;6309339;28;20298;-70
2023/11/06 06:42:34;;;;;;;6.75;6.10;;;;;;;;;;6310081;28;20293;-71
2023/11/06 06:45:39;;;;;;;7.70;6.43;;;;;;;;;;6309097;28;20310;-70
2023/11/06 06:48:43;;;;;;;7.15;6.15;;;;;;;;;;6309016;28;20290;-70
2023/11/06 06:51:46;;;;;;;6.65;6.05;;;;;;;;;;6309251;28;20313;-71
2023/11/06 06:54:50;;;;;;;7.57;6.15;;;;;;;;;;6306582;28;20497;-70
2023/11/06 06:57:57;;;;;;;8.27;6.88;;;;;;;;;;6309044;28;20324;-72
2023/11/06 07:01:03;;;;;;;8.95;7.18;;;;;;;;;;6308741;28;20298;-70
2023/11/06 07:04:06;;;;;;;9.13;7.63;;;;;;;;;;6308377;28;20309;-70
2023/11/06 07:07:10;;;;;;;12.25;7.07;;;;;;;;;;6309506;28;20310;-72
2023/11/06 07:10:15;;;;;;;11.77;7.25;;;;;;;;;;6308435;28;20310;-70
2023/11/06 07:13:19;;;;;;;12.68;7.80;;;;;;;;;;6308106;28;20298;-71
2023/11/06 07:16:24;;;;;;;13.23;6.80;;;;;;;;;;6307537;28;20461;-70
2023/11/06 07:19:28;;;;;;;18.40;8.00;;;;;;;;;;6307549;28;20305;-72
2023/11/06 07:22:32;;;;;;;13.15;7.82;;;;;;;;;;6308461;28;20251;-72
2023/11/06 07:25:36;;;;;;;13.18;7.93;;;;;;;;;;6306843;28;20346;-72
2023/11/06 07:28:39;;;;;;;12.60;7.90;;;;;;;;;;6307687;28;20301;-72
2023/11/06 07:31:45;;;;;;;15.23;7.90;;;;;;;;;;6307976;28;20282;-70
2023/11/06 07:34:49;;;;;;;13.57;8.82;;;;;;;;;;6307532;28;20310;-71
2023/11/06 07:37:53;;;;;;;13.68;8.40;;;;;;;;;;6307793;28;20305;-70
2023/11/06 07:40:57;;;;;;;16.35;9.13;;;;;;;;;;6307240;28;20311;-71
2023/11/06 07:44:01;;;;;;;16.02;8.70;;;;;;;;;;6307321;28;20305;-69
2023/11/06 07:47:06;;;;;;;14.32;9.13;;;;;;;;;;6307301;28;20415;-71
2023/11/06 07:50:10;;;;;;;16.48;8.55;;;;;;;;;;6306864;28;20298;-70
2023/11/06 07:53:14;;;;;;;30.77;8.93;;;;;;;;;;6305174;28;20333;-71
2023/11/06 07:56:18;;;;;;;17.58;8.35;;;;;;;;;;6307286;28;20388;-70
2023/11/06 07:59:22;;;;;;;14.60;8.90;;;;;;;;;;6306559;28;20302;-71
2023/11/06 08:02:28;;;;;;;20.80;9.40;;;;;;;;;;6307185;28;20343;-70
2023/11/06 08:05:31;;;;;;;16.85;10.80;;;;;;;;;;6306683;28;20306;-69
2023/11/06 08:08:35;;;;;;;11.32;8.18;;;;;;;;;;6306642;28;20290;-70
2023/11/06 08:11:39;;;;;;;14.70;7.97;;;;;;;;;;6306902;28;20294;-70
2023/11/06 08:14:43;;;;;;;11.88;7.80;;;;;;;;;;6306561;28;20286;-70
2023/11/06 08:17:48;;;;;;;11.10;7.80;;;;;;;;;;6306808;28;20598;-71
2023/11/06 08:20:52;;;;;;;13.77;7.82;;;;;;;;;;6338673;28;20576;-70
2023/11/06 08:23:56;;;;;;;16.13;8.05;;;;;;;;;;6306503;28;20302;-70
2023/11/06 08:26:59;;;;;;;8.00;6.43;;;;;;;;;;6307143;28;20286;-70
2023/11/06 08:30:05;;;;;;;7.35;6.28;;;;;;;;;;6304855;28;20590;-70
2023/11/06 08:33:10;;;;;;;5.55;5.07;;;;;;;;;;6304638;28;20294;-70
2023/11/06 08:36:14;;;;;;;5.93;5.43;;;;;;;;;;6306374;28;20298;-70
2023/11/06 08:39:18;;;;;;;6.32;5.63;;;;;;;;;;6305697;28;20227;-70
2023/11/06 08:42:22;;;;;;;5.82;5.43;;;;;;;;;;6306358;28;20587;-69
2023/11/06 08:45:27;;;;;;;6.03;5.35;;;;;;;;;;6305622;28;20306;-70
2023/11/06 08:48:32;;;;;;;5.45;5.05;;;;;;;;;;6305940;28;20365;-70
2023/11/06 08:51:36;;;;;;;5.53;5.13;;;;;;;;;;6305937;28;20477;-70
2023/11/06 08:54:45;;;;;;;5.45;5.07;;;;;;;;;;6304001;28;20298;-70
2023/11/06 08:57:49;;;;;;;4.45;4.20;;;;;;;;;;6305987;28;20306;-70
2023/11/06 09:00:53;;;;;;;4.63;4.43;;;;;;;;;;6305334;28;20302;-70
2023/11/06 09:03:58;;;;;;;5.53;4.97;;;;;;;;;;6305532;28;20299;-71
2023/11/06 09:07:03;;;;;;;5.75;5.10;;;;;;;;;;6305695;28;20290;-71
2023/11/06 09:10:08;;;;;;;5.63;4.70;;;;;;;;;;6305500;28;20290;-72
2023/11/06 09:13:13;;;;;;;5.55;4.95;;;;;;;;;;6305430;28;20290;-71
2023/11/06 09:16:18;;;;;;;5.25;5.03;;;;;;;;;;6305841;28;20333;-71
2023/11/06 09:19:23;;;;;;;5.07;4.65;;;;;;;;;;6304359;28;20310;-71
2023/11/06 09:22:26;;;;;;;5.25;4.95;;;;;;;;;;6305771;28;20238;-71
2023/11/06 09:25:31;;;;;;;4.45;4.07;;;;;;;;;;6305604;28;20301;-71
2023/11/06 09:28:34;;;;;;;4.60;4.20;;;;;;;;;;6305601;28;20309;-71
2023/11/06 09:31:38;;;;;;;4.97;4.75;;;;;;;;;;6305720;28;20247;-71
2023/11/06 09:34:43;;;;;;;5.03;4.70;;;;;;;;;;6305411;28;20317;-71
2023/11/06 09:37:47;;;;;;;5.57;5.20;;;;;;;;;;6305762;28;20282;-72
2023/11/06 09:40:52;;;;;;;5.82;5.40;;;;;;;;;;6305012;28;20306;-71
2023/11/06 09:43:55;;;;;;;6.03;5.60;;;;;;;;;;6305056;28;20302;-71
2023/11/06 09:47:02;;;;;;;5.60;5.25;;;;;;;;;;6305079;28;20357;-71
2023/11/06 09:50:13;;;;;;;5.25;5.00;;;;;;;;;;6309174;28;20370;-71
2023/11/06 09:53:17;;;;;;;5.05;4.75;;;;;;;;;;6307900;28;20282;-71
2023/11/06 09:56:21;;;;;;;5.65;5.10;;;;;;;;;;6310006;28;20293;-71
2023/11/06 09:59:25;;;;;;;5.55;5.15;;;;;;;;;;6309614;28;20306;-71
2023/11/06 10:02:29;;;;;;;8.57;5.97;;;;;;;;;;6310475;28;20658;-70
2023/11/06 10:05:34;;;;;;;6.53;5.53;;;;;;;;;;6309629;28;20366;-71
2023/11/06 10:08:38;;;;;;;5.75;5.00;;;;;;;;;;6309553;28;20297;-71
2023/11/06 10:11:44;;;;;;;5.22;4.78;;;;;;;;;;6309913;28;20317;-71
2023/11/06 10:14:48;;;;;;;6.05;5.07;;;;;;;;;;6309464;28;20322;-70
2023/11/06 10:17:51;;;;;;;4.78;4.47;;;;;;;;;;6309894;28;20282;-70
2023/11/06 10:20:56;;;;;;;5.07;4.88;;;;;;;;;;6309393;28;20483;-71
2023/11/06 10:24:01;;;;;;;4.95;4.60;;;;;;;;;;6309511;28;20302;-70
2023/11/06 10:27:21;;;;;;;5.53;5.13;;;;;;;;;;6309464;28;20297;-70
2023/11/06 10:30:27;;;;;;;6.78;5.07;;;;;;;;;;6308766;28;20294;-70
2023/11/06 10:33:32;;;;;;;6.07;4.72;;;;;;;;;;6309160;28;20297;-72
2023/11/06 10:36:37;;;;;;;6.03;5.45;;;;;;;;;;6309506;28;20294;-70
2023/11/06 10:39:42;;;;;;;5.85;5.40;;;;;;;;;;6308857;28;20299;-73
2023/11/06 10:42:48;;;;;;;5.43;4.95;;;;;;;;;;6308958;28;20591;-72
2023/11/06 10:45:52;;;;;;;5.03;4.82;;;;;;;;;;6308809;28;20318;-71
2023/11/06 10:49:03;;;;;;;4.93;4.68;;;;;;;;;;6308565;28;20393;-71
2023/11/06 10:52:09;;;;;;;5.10;4.80;;;;;;;;;;6308828;28;20393;-71
2023/11/06 10:55:14;;;;;;;5.30;4.88;;;;;;;;;;6306360;28;20291;-70
2023/11/06 10:58:34;;;;;;;5.30;5.00;;;;;;;;;;6307754;28;20294;-70
2023/11/06 11:01:38;;;;;;;5.38;4.95;;;;;;;;;;6307087;28;20559;-70
2023/11/06 11:04:42;;;;;;;4.88;4.63;;;;;;;;;;6308161;28;20334;-71
2023/11/06 11:07:48;;;;;;;5.13;4.72;;;;;;;;;;6308832;28;20294;-71
2023/11/06 11:10:52;;;;;;;4.75;4.50;;;;;;;;;;6308049;28;20290;-71
2023/11/06 11:13:55;;;;;;;5.40;4.97;;;;;;;;;;6307972;28;20458;-71
2023/11/06 11:17:09;;;;;;;5.30;4.80;;;;;;;;;;6308331;28;20302;-72
2023/11/06 11:20:13;;;;;;;4.85;4.45;;;;;;;;;;6307830;28;20326;-71
2023/11/06 11:23:18;;;;;;;6.25;5.00;;;;;;;;;;6307616;28;20306;-70
2023/11/06 11:26:22;;;;;;;4.65;4.40;;;;;;;;;;6307988;28;20458;-70
2023/11/06 11:30:10;;;;;;;6.57;4.75;;;;;;;;;;6307559;28;20440;-71
2023/11/06 11:33:48;;;;;;;5.10;4.75;;;;;;;;;;6307733;28;20298;-72
2023/11/06 11:36:52;;;;;;;5.30;4.90;;;;;;;;;;6307751;28;20387;-71
2023/11/06 11:39:59;;;;;;;5.45;4.93;;;;;;;;;;6307158;28;20322;-70
2023/11/06 11:43:36;;;;;;;5.40;5.05;;;;;;;;;;6307449;28;20286;-71
2023/11/06 11:46:57;;;;;;;5.32;4.93;;;;;;;;;;6307145;28;20299;-71
2023/11/06 11:50:01;;;;;;;5.47;4.95;;;;;;;;;;6307443;28;20294;-72
2023/11/06 11:53:06;;;;;;;5.07;4.78;;;;;;;;;;6305533;28;20298;-71
2023/11/06 11:56:43;;;;;;;5.55;5.15;;;;;;;;;;6307561;28;20286;-70
2023/11/06 11:59:52;;;;;;;5.38;4.95;;;;;;;;;;6306975;28;20298;-70
2023/11/06 12:03:14;;;;;;;7.70;4.93;;;;;;;;;;6306944;28;20302;-71
2023/11/06 12:06:18;;;;;;;5.00;4.50;;;;;;;;;;6297938;28;20301;-71
2023/11/06 12:09:22;;;;;;;5.53;4.72;;;;;;;;;;6306763;28;20289;-70
2023/11/06 12:12:28;;;;;;;5.10;4.82;;;;;;;;;;6306749;28;20290;-71
2023/11/06 12:15:33;;;;;;;4.53;4.22;;;;;;;;;;6306791;28;20559;-70
2023/11/06 12:18:43;;;;;;;5.85;5.07;;;;;;;;;;6306993;28;20468;-71
2023/11/06 12:22:00;;;;;;;4.68;4.38;;;;;;;;;;6306904;28;20488;-71
2023/11/06 12:25:06;;;;;;;4.35;3.92;;;;;;;;;;6306097;28;20485;-70
2023/11/06 12:28:11;;;;;;;4.25;4.05;;;;;;;;;;6306019;28;20294;-70
2023/11/06 12:31:19;;;;;;;3.85;3.55;;;;;;;;;;6306713;28;20306;-71
2023/11/06 12:34:24;;;;;;;5.80;3.63;;;;;;;;;;6305304;28;20306;-72
2023/11/06 12:37:28;;;;;;;3.40;3.35;;;;;;;;;;6306380;28;20254;-72
2023/11/06 12:40:32;;;;;;;3.70;3.58;;;;;;;;;;6305978;28;20302;-72
2023/11/06 12:43:36;;;;;;;5.20;4.82;;;;;;;;;;6306171;28;20297;-72
2023/11/06 12:46:45;;;;;;;3.85;3.55;;;;;;;;;;6306037;28;20325;-72
2023/11/06 12:49:52;;;;;;;3.55;3.22;;;;;;;;;;6305585;28;20302;-73
2023/11/06 12:52:56;;;;;;;3.45;3.35;;;;;;;;;;6303659;28;20294;-72
2023/11/06 12:56:02;;;;;;;3.83;3.30;;;;;;;;;;6306307;28;20258;-71
2023/11/06 12:59:06;;;;;;;3.20;3.10;;;;;;;;;;6305717;28;20294;-73
2023/11/06 13:02:12;;;;;;;3.30;3.10;;;;;;;;;;6305960;28;20294;-71
2023/11/06 13:05:19;;;;;;;3.47;3.38;;;;;;;;;;6305370;28;20298;-74
2023/11/06 13:08:23;;;;;;;3.67;3.50;;;;;;;;;;6305484;28;20309;-71
2023/11/06 13:11:28;;;;;;;3.75;3.53;;;;;;;;;;6305853;28;20302;-71
2023/11/06 13:14:40;;;;;;;3.58;3.42;;;;;;;;;;6305042;28;20286;-71
2023/11/06 13:17:46;;;;;;;3.92;3.70;;;;;;;;;;6305566;28;20297;-72
2023/11/06 13:20:53;;;;;;;4.90;4.50;;;;;;;;;;6305317;28;20298;-70
2023/11/06 13:23:57;;;;;;;3.63;3.45;;;;;;;;;;6304601;28;20302;-71
2023/11/06 13:27:02;;;;;;;3.40;3.30;;;;;;;;;;6305373;28;20286;-70
2023/11/06 13:30:09;;;;;;;3.95;3.60;;;;;;;;;;6305239;28;20326;-69
2023/11/06 13:33:14;;;;;;;3.70;3.60;;;;;;;;;;6305231;28;20385;-72
2023/11/06 13:36:18;;;;;;;3.88;3.67;;;;;;;;;;6305432;28;20611;-71
2023/11/06 13:39:24;;;;;;;3.40;3.30;;;;;;;;;;6305060;28;20290;-70
2023/11/06 13:42:29;;;;;;;3.80;3.45;;;;;;;;;;6305303;28;20301;-70
2023/11/06 13:45:33;;;;;;;3.58;3.22;;;;;;;;;;6304855;28;20298;-70
2023/11/06 13:48:39;;;;;;;4.10;3.80;;;;;;;;;;6304981;28;20294;-71
2023/11/06 13:51:43;;;;;;;3.47;3.35;;;;;;;;;;6304960;28;20315;-71
2023/11/06 13:54:48;;;;;;;3.80;3.70;;;;;;;;;;6302796;28;20298;-71
2023/11/06 13:57:53;;;;;;;3.45;3.35;;;;;;;;;;6305149;28;20403;-71
2023/11/06 14:01:07;;;;;;;4.25;3.42;;;;;;;;;;6304450;28;20375;-71
2023/11/06 14:04:12;;;;;;;3.47;3.28;;;;;;;;;;6304298;28;20302;-71
2023/11/06 14:07:16;;;;;;;3.60;3.40;;;;;;;;;;6304830;28;20302;-70
2023/11/06 14:10:30;;;;;;;3.50;3.40;;;;;;;;;;6304104;28;20293;-73
2023/11/06 14:13:33;;;;;;;3.35;3.15;;;;;;;;;;6304542;28;20291;-70
2023/11/06 14:16:37;;;;;;;3.67;3.58;;;;;;;;;;6305201;28;20271;-69
2023/11/06 14:19:43;;;;;;;3.33;3.22;;;;;;;;;;6304303;28;20282;-69
2023/11/06 14:22:47;;;;;;;3.03;2.97;;;;;;;;;;6304774;28;20445;-70
2023/11/06 14:25:50;;;;;;;3.03;3.03;;;;;;;;;;6304443;28;20472;-70
2023/11/06 14:28:55;;;;;;;2.55;2.47;;;;;;;;;;6304165;28;20286;-70
2023/11/06 14:31:59;;;;;;;3.20;2.90;;;;;;;;;;6304640;28;20380;-69
2023/11/06 14:35:06;;;;;;;2.65;2.55;;;;;;;;;;6306376;28;20614;-70
2023/11/06 14:38:11;;;;;;;2.58;2.40;;;;;;;;;;6308688;28;20302;-70
2023/11/06 14:41:15;;;;;;;7.68;2.50;;;;;;;;;;6308992;28;20309;-70
2023/11/06 14:44:19;;;;;;;2.92;2.83;;;;;;;;;;6308439;28;20487;-70
2023/11/06 14:47:23;;;;;;;2.22;2.22;;;;;;;;;;6284338;28;20290;-70
2023/11/06 14:50:29;;;;;;;2.60;2.38;;;;;;;;;;6283843;28;20290;-71
2023/11/06 14:53:32;;;;;;;2.25;2.25;;;;;;;;;;6281618;28;20294;-71
2023/11/06 14:56:45;;;;;;;2.28;2.28;;;;;;;;;;6282752;28;20291;-69
2023/11/06 14:59:49;;;;;;;2.53;2.42;;;;;;;;;;6283368;28;20299;-70
2023/11/06 15:02:56;;;;;;;2.33;2.33;;;;;;;;;;6283589;28;20311;-69
2023/11/06 15:06:02;;;;;;;2.90;2.70;;;;;;;;;;6282927;28;20306;-70
2023/11/06 15:09:05;;;;;;;2.95;2.53;;;;;;;;;;6283517;28;20467;-70
2023/11/06 15:12:11;;;;;;;2.95;2.78;;;;;;;;;;6283759;28;20295;-71
2023/11/06 15:15:18;;;;;;;2.78;2.70;;;;;;;;;;6283170;28;20378;-69
2023/11/06 15:18:21;;;;;;;3.83;3.53;;;;;;;;;;6282864;28;20302;-72
2023/11/06 15:21:27;;;;;;;3.58;3.30;;;;;;;;;;6283152;28;20306;-73
2023/11/06 15:24:31;;;;;;;3.33;3.22;;;;;;;;;;6280387;28;20306;-69
2023/11/06 15:27:34;;;;;;;3.35;3.25;;;;;;;;;;6241666;28;20300;-70
2023/11/06 15:30:39;;;;;;;3.30;3.10;;;;;;;;;;6233309;28;20312;-71
2023/11/06 15:33:44;;;;;;;3.78;3.55;;;;;;;;;;6233461;28;20323;-71
2023/11/06 15:36:50;;;;;;;3.30;3.13;;;;;;;;;;6233435;28;20308;-72
2023/11/06 15:39:54;;;;;;;3.60;3.50;;;;;;;;;;6233564;28;20296;-69
2023/11/06 15:42:58;;;;;;;3.90;3.75;;;;;;;;;;6233350;28;20304;-70
2023/11/06 15:46:03;;;;;;;3.55;3.25;;;;;;;;;;6247348;28;20307;-71
2023/11/06 15:49:08;;;;;;;3.90;3.72;;;;;;;;;;6257669;28;20307;-71
2023/11/06 15:52:14;;;;;;;3.50;3.40;;;;;;;;;;6257965;28;20327;-71
2023/11/06 15:55:18;;;;;;;3.65;3.33;;;;;;;;;;6255938;28;20291;-70
2023/11/06 15:58:22;;;;;;;2.92;2.88;;;;;;;;;;6281489;28;20302;-71
2023/11/06 16:01:29;;;;;;;3.10;3.00;;;;;;;;;;6281166;28;20251;-72
2023/11/06 16:04:33;;;;;;;2.60;2.60;;;;;;;;;;6270403;28;20378;-71
2023/11/06 16:07:38;;;;;;;2.83;2.83;;;;;;;;;;6280474;28;20243;-71
2023/11/06 16:10:42;;;;;;;2.70;2.50;;;;;;;;;;6282860;28;20492;-71
2023/11/06 16:13:48;;;;;;;2.40;2.40;;;;;;;;;;6306446;28;20510;-70
2023/11/06 16:16:52;;;;;;;2.35;2.17;;;;;;;;;;6307372;28;20540;-71
2023/11/06 16:19:56;;;;;;;2.00;2.00;;;;;;;;;;6306699;28;20306;-70
2023/11/06 16:23:04;;;;;;;2.13;2.13;;;;;;;;;;6306373;28;20306;-69
2023/11/06 16:26:09;;;;;;;2.40;2.40;;;;;;;;;;6306227;28;20310;-72
2023/11/06 16:29:13;;;;;;;2.25;2.15;;;;;;;;;;6306002;28;20286;-70
2023/11/06 16:32:17;;;;;;;2.35;2.25;;;;;;;;;;6293483;28;20612;-71
2023/11/06 16:35:23;;;;;;;2.33;2.33;;;;;;;;;;6256917;28;20299;-71
2023/11/06 16:38:29;;;;;;;2.03;2.00;;;;;;;;;;6256792;28;20405;-71
2023/11/06 16:41:33;;;;;;;2.40;2.40;;;;;;;;;;6257070;28;20287;-70
2023/11/06 16:44:39;;;;;;;2.40;2.40;;;;;;;;;;6256831;28;20487;-71
2023/11/06 16:47:43;;;;;;;2.70;2.50;;;;;;;;;;6257016;28;20398;-70
2023/11/06 16:50:48;;;;;;;2.55;2.47;;;;;;;;;;6255725;28;20398;-70
2023/11/06 16:53:53;;;;;;;2.80;2.70;;;;;;;;;;6254245;28;20482;-70
2023/11/06 16:56:57;;;;;;;2.78;2.67;;;;;;;;;;6256325;28;20391;-71
2023/11/06 17:00:02;;;;;;;2.58;2.47;;;;;;;;;;6287570;28;20291;-69
2023/11/06 17:03:06;;;;;;;2.83;2.72;;;;;;;;;;6255721;28;20303;-70
2023/11/06 17:06:11;;;;;;;2.60;2.60;;;;;;;;;;6256290;28;20287;-68
2023/11/06 17:09:17;;;;;;;3.13;3.03;;;;;;;;;;6255771;28;20307;-68
2023/11/06 17:12:21;;;;;;;3.10;2.78;;;;;;;;;;6279167;28;20303;-69
2023/11/06 17:15:26;;;;;;;3.35;2.83;;;;;;;;;;6280323;28;20291;-69
2023/11/06 17:18:30;;;;;;;3.35;3.08;;;;;;;;;;6280963;28;20298;-69
2023/11/06 17:21:34;;;;;;;4.28;2.72;;;;;;;;;;6281092;28;20334;-68
2023/11/06 17:24:39;;;;;;;2.80;2.63;;;;;;;;;;6280286;28;20291;-70
2023/11/06 17:27:43;;;;;;;2.75;2.65;;;;;;;;;;6280610;28;20310;-69
2023/11/06 17:30:46;;;;;;;3.00;3.00;;;;;;;;;;6280237;28;20303;-71
2023/11/06 17:33:52;;;;;;;3.00;2.90;;;;;;;;;;6280586;28;20282;-68
2023/11/06 17:36:56;;;;;;;2.90;2.90;;;;;;;;;;6280568;28;20291;-69
2023/11/06 17:40:01;;;;;;;3.80;3.53;;;;;;;;;;6280281;28;20318;-70
2023/11/06 17:43:06;;;;;;;3.72;3.42;;;;;;;;;;6279903;28;20298;-71
2023/11/06 17:46:10;;;;;;;3.65;3.35;;;;;;;;;;6280690;28;20327;-71
2023/11/06 17:49:15;;;;;;;3.60;3.40;;;;;;;;;;6279793;28;20631;-70
2023/11/06 17:52:18;;;;;;;4.00;3.25;;;;;;;;;;6278471;28;20303;-71
2023/11/06 17:55:24;;;;;;;3.25;2.97;;;;;;;;;;6303956;28;20347;-70
2023/11/06 17:58:28;;;;;;;4.20;3.85;;;;;;;;;;6305089;28;20634;-71
2023/11/06 18:01:32;;;;;;;3.33;3.22;;;;;;;;;;6304885;28;20323;-71
2023/11/06 18:04:36;;;;;;;3.65;3.55;;;;;;;;;;6304826;28;20298;-71
2023/11/06 18:07:40;;;;;;;3.90;3.65;;;;;;;;;;6305117;28;20313;-71
2023/11/06 18:10:45;;;;;;;4.03;3.92;;;;;;;;;;6307960;28;20293;-71
2023/11/06 18:13:49;;;;;;;4.57;4.18;;;;;;;;;;6309338;28;20294;-71
2023/11/06 18:16:54;;;;;;;4.38;3.90;;;;;;;;;;6309893;28;20365;-72
2023/11/06 18:20:02;;;;;;;4.30;3.90;;;;;;;;;;6309399;28;20295;-70
2023/11/06 18:23:06;;;;;;;4.28;3.95;;;;;;;;;;6309139;28;20294;-71
2023/11/06 18:26:11;;;;;;;4.65;4.20;;;;;;;;;;6309257;28;20302;-70
2023/11/06 18:29:14;;;;;;;4.10;3.80;;;;;;;;;;6308073;28;20301;-71